sensor_id;sensor_type;location;lat;lon;timestamp;pressure;altitude;pressure_sealevel;temperature;humidity
14393;BME280;7281;42.678;23.372;2023-02-28T00:00:37;95555.56;;;12.06;54.78
14393;BME280;7281;42.678;23.372;2023-02-28T00:03:04;95558.81;;;11.70;55.74
14393;BME280;7281;42.678;23.372;2023-02-28T00:05:31;95567.97;;;11.89;55.86
14393;BME280;7281;42.678;23.372;2023-02-28T00:07:58;95574.53;;;12.13;55.02
14393;BME280;7281;42.678;23.372;2023-02-28T00:10:28;95574.41;;;12.03;55.24
14393;BME280;7281;42.678;23.372;2023-02-28T00:13:00;95567.25;;;12.20;54.65
14393;BME280;7281;42.678;23.372;2023-02-28T00:15:27;95572.78;;;12.23;54.11
14393;BME280;7281;42.678;23.372;2023-02-28T00:17:54;95586.81;;;12.34;54.47
14393;BME280;7281;42.678;23.372;2023-02-28T00:20:20;95582.53;;;12.28;54.71
14393;BME280;7281;42.678;23.372;2023-02-28T00:22:50;95582.66;;;12.38;54.58
14393;BME280;7281;42.678;23.372;2023-02-28T00:25:19;95584.56;;;12.48;54.31
14393;BME280;7281;42.678;23.372;2023-02-28T00:27:47;95590.09;;;12.46;54.34
14393;BME280;7281;42.678;23.372;2023-02-28T00:30:18;95597.66;;;12.74;53.86
14393;BME280;7281;42.678;23.372;2023-02-28T00:32:45;95559.13;;;12.53;53.54
14393;BME280;7281;42.678;23.372;2023-02-28T00:35:12;95582.53;;;12.55;53.59
14393;BME280;7281;42.678;23.372;2023-02-28T00:37:41;95597.66;;;12.74;53.14
14393;BME280;7281;42.678;23.372;2023-02-28T00:40:08;95583.91;;;12.62;53.46
14393;BME280;7281;42.678;23.372;2023-02-28T00:42:36;95592.56;;;12.31;54.71
14393;BME280;7281;42.678;23.372;2023-02-28T00:45:04;95591.06;;;12.40;53.84
14393;BME280;7281;42.678;23.372;2023-02-28T00:47:31;95575.72;;;12.27;54.58
14393;BME280;7281;42.678;23.372;2023-02-28T00:49:59;95568.19;;;12.09;54.67
14393;BME280;7281;42.678;23.372;2023-02-28T00:52:44;95573.44;;;12.09;54.86
14393;BME280;7281;42.678;23.372;2023-02-28T00:55:13;95564.09;;;12.23;54.07
14393;BME280;7281;42.678;23.372;2023-02-28T00:57:40;95572.75;;;12.18;53.93
14393;BME280;7281;42.678;23.372;2023-02-28T01:00:09;95567.69;;;12.12;54.21
14393;BME280;7281;42.678;23.372;2023-02-28T01:02:36;95576.91;;;12.14;53.83
14393;BME280;7281;42.678;23.372;2023-02-28T01:05:03;95588.22;;;12.15;53.89
14393;BME280;7281;42.678;23.372;2023-02-28T01:07:30;95535.91;;;11.87;53.87
14393;BME280;7281;42.678;23.372;2023-02-28T01:09:57;95579.50;;;12.09;53.35
14393;BME280;7281;42.678;23.372;2023-02-28T01:12:24;95575.13;;;12.20;53.74
14393;BME280;7281;42.678;23.372;2023-02-28T01:14:51;95549.63;;;11.94;53.62
14393;BME280;7281;42.678;23.372;2023-02-28T01:17:20;95577.88;;;12.08;53.92
14393;BME280;7281;42.678;23.372;2023-02-28T01:19:47;95571.25;;;12.01;54.07
14393;BME280;7281;42.678;23.372;2023-02-28T01:22:14;95573.44;;;12.09;53.69
14393;BME280;7281;42.678;23.372;2023-02-28T01:24:41;95567.38;;;12.08;54.14
14393;BME280;7281;42.678;23.372;2023-02-28T01:27:11;95563.94;;;12.08;53.49
14393;BME280;7281;42.678;23.372;2023-02-28T01:29:38;95560.47;;;12.02;53.75
14393;BME280;7281;42.678;23.372;2023-02-28T01:32:05;95572.84;;;12.02;54.13
14393;BME280;7281;42.678;23.372;2023-02-28T01:34:34;95560.72;;;12.01;54.25
14393;BME280;7281;42.678;23.372;2023-02-28T01:37:03;95567.25;;;11.72;54.86
14393;BME280;7281;42.678;23.372;2023-02-28T01:39:30;95554.72;;;12.00;53.92
14393;BME280;7281;42.678;23.372;2023-02-28T01:41:57;95570.25;;;12.07;53.97
14393;BME280;7281;42.678;23.372;2023-02-28T01:47:41;95579.84;;;11.53;55.85
14393;BME280;7281;42.678;23.372;2023-02-28T01:50:16;95567.94;;;11.84;54.64
14393;BME280;7281;42.678;23.372;2023-02-28T01:52:46;95564.53;;;11.88;53.91
14393;BME280;7281;42.678;23.372;2023-02-28T01:55:17;95574.16;;;11.78;54.32
14393;BME280;7281;42.678;23.372;2023-02-28T01:57:52;95583.72;;;11.89;53.83
14393;BME280;7281;42.678;23.372;2023-02-28T02:00:24;95580.75;;;12.07;53.57
14393;BME280;7281;42.678;23.372;2023-02-28T02:02:56;95571.25;;;12.01;53.34
14393;BME280;7281;42.678;23.372;2023-02-28T02:05:25;95564.19;;;12.06;53.09
14393;BME280;7281;42.678;23.372;2023-02-28T02:08:16;95571.94;;;11.70;54.55
14393;BME280;7281;42.678;23.372;2023-02-28T02:10:46;95584.34;;;11.53;55.07
14393;BME280;7281;42.678;23.372;2023-02-28T02:18:52;95564.91;;;11.32;55.84
14393;BME280;7281;42.678;23.372;2023-02-28T02:40:17;95571.34;;;12.11;53.80
14393;BME280;7281;42.678;23.372;2023-02-28T02:42:56;95576.03;;;12.04;53.56
14393;BME280;7281;42.678;23.372;2023-02-28T02:48:05;95578.56;;;11.99;53.52
14393;BME280;7281;42.678;23.372;2023-02-28T02:50:41;95590.09;;;11.93;53.93
14393;BME280;7281;42.678;23.372;2023-02-28T02:53:10;95554.31;;;11.65;53.98
14393;BME280;7281;42.678;23.372;2023-02-28T02:55:41;95581.66;;;11.91;53.61
14393;BME280;7281;42.678;23.372;2023-02-28T02:58:14;95583.41;;;12.07;53.75
14393;BME280;7281;42.678;23.372;2023-02-28T03:00:47;95584.38;;;12.01;53.50
14393;BME280;7281;42.678;23.372;2023-02-28T03:03:16;95591.69;;;11.99;53.26
14393;BME280;7281;42.678;23.372;2023-02-28T03:05:47;95603.56;;;12.01;53.46
14393;BME280;7281;42.678;23.372;2023-02-28T03:08:15;95601.78;;;12.07;53.62
14393;BME280;7281;42.678;23.372;2023-02-28T03:10:48;95608.13;;;12.11;53.36
14393;BME280;7281;42.678;23.372;2023-02-28T03:16:23;95618.81;;;12.04;54.11
14393;BME280;7281;42.678;23.372;2023-02-28T03:30:03;95625.97;;;12.09;54.02
14393;BME280;7281;42.678;23.372;2023-02-28T03:32:54;95634.41;;;12.11;53.57
14393;BME280;7281;42.678;23.372;2023-02-28T03:35:28;95633.25;;;12.02;53.98
14393;BME280;7281;42.678;23.372;2023-02-28T03:38:05;95632.56;;;11.90;54.29
14393;BME280;7281;42.678;23.372;2023-02-28T03:40:34;95640.13;;;12.08;53.80
14393;BME280;7281;42.678;23.372;2023-02-28T03:43:09;95639.19;;;11.92;54.34
14393;BME280;7281;42.678;23.372;2023-02-28T03:45:39;95627.97;;;11.97;54.04
14393;BME280;7281;42.678;23.372;2023-02-28T03:48:25;95640.13;;;12.08;53.85
14393;BME280;7281;42.678;23.372;2023-02-28T03:50:55;95642.91;;;11.96;54.32
14393;BME280;7281;42.678;23.372;2023-02-28T03:53:32;95644.13;;;11.89;54.25
14393;BME280;7281;42.678;23.372;2023-02-28T03:56:08;95641.81;;;11.92;54.57
14393;BME280;7281;42.678;23.372;2023-02-28T03:58:55;95641.69;;;11.82;54.58
14393;BME280;7281;42.678;23.372;2023-02-28T04:02:06;95652.88;;;11.73;54.66
14393;BME280;7281;42.678;23.372;2023-02-28T04:04:14;95653.03;;;11.88;54.45
14393;BME280;7281;42.678;23.372;2023-02-28T04:06:42;95658.38;;;11.93;54.66
14393;BME280;7281;42.678;23.372;2023-02-28T04:09:12;95646.50;;;12.12;54.06
14393;BME280;7281;42.678;23.372;2023-02-28T04:11:40;95643.75;;;12.02;54.37
14393;BME280;7281;42.678;23.372;2023-02-28T04:14:10;95639.13;;;12.09;53.66
14393;BME280;7281;42.678;23.372;2023-02-28T04:16:40;95648.22;;;11.80;54.60
14393;BME280;7281;42.678;23.372;2023-02-28T04:19:08;95644.94;;;11.89;54.56
14393;BME280;7281;42.678;23.372;2023-02-28T04:21:41;95644.03;;;11.62;55.25
14393;BME280;7281;42.678;23.372;2023-02-28T04:24:10;95634.66;;;11.88;54.78
14393;BME280;7281;42.678;23.372;2023-02-28T04:26:42;95648.41;;;11.95;54.44
14393;BME280;7281;42.678;23.372;2023-02-28T04:29:11;95642.53;;;11.88;54.91
14393;BME280;7281;42.678;23.372;2023-02-28T04:31:39;95644.63;;;11.86;54.67
14393;BME280;7281;42.678;23.372;2023-02-28T04:34:06;95646.25;;;11.92;54.42
14393;BME280;7281;42.678;23.372;2023-02-28T04:36:33;95646.25;;;11.92;54.44
14393;BME280;7281;42.678;23.372;2023-02-28T04:38:59;95642.63;;;11.93;54.25
14393;BME280;7281;42.678;23.372;2023-02-28T04:41:26;95651.13;;;12.05;53.80
14393;BME280;7281;42.678;23.372;2023-02-28T04:43:57;95653.72;;;12.00;53.54
14393;BME280;7281;42.678;23.372;2023-02-28T04:46:24;95656.22;;;11.52;54.82
14393;BME280;7281;42.678;23.372;2023-02-28T04:48:51;95659.09;;;11.50;55.17
14393;BME280;7281;42.678;23.372;2023-02-28T04:51:18;95672.31;;;11.39;55.38
14393;BME280;7281;42.678;23.372;2023-02-28T04:53:46;95669.09;;;11.70;54.00
14393;BME280;7281;42.678;23.372;2023-02-28T04:56:15;95652.31;;;11.71;54.55
14393;BME280;7281;42.678;23.372;2023-02-28T04:58:43;95663.38;;;11.73;54.65
14393;BME280;7281;42.678;23.372;2023-02-28T05:03:56;95659.28;;;11.82;53.97
14393;BME280;7281;42.678;23.372;2023-02-28T05:06:26;95664.41;;;11.93;54.02
14393;BME280;7281;42.678;23.372;2023-02-28T05:08:54;95659.88;;;11.89;53.48
14393;BME280;7281;42.678;23.372;2023-02-28T05:11:29;95666.31;;;11.98;53.89
14393;BME280;7281;42.678;23.372;2023-02-28T05:14:06;95672.16;;;12.05;53.54
14393;BME280;7281;42.678;23.372;2023-02-28T05:16:34;95673.44;;;12.02;53.52
14393;BME280;7281;42.678;23.372;2023-02-28T05:19:00;95672.81;;;11.95;53.41
14393;BME280;7281;42.678;23.372;2023-02-28T05:21:32;95672.59;;;11.97;53.41
14393;BME280;7281;42.678;23.372;2023-02-28T05:24:05;95691.50;;;11.99;53.26
14393;BME280;7281;42.678;23.372;2023-02-28T05:26:36;95687.81;;;11.95;53.69
14393;BME280;7281;42.678;23.372;2023-02-28T05:29:03;95683.53;;;11.89;53.56
14393;BME280;7281;42.678;23.372;2023-02-28T05:31:30;95691.09;;;12.07;52.95
14393;BME280;7281;42.678;23.372;2023-02-28T05:33:58;95695.19;;;12.19;52.82
14393;BME280;7281;42.678;23.372;2023-02-28T05:36:25;95691.00;;;11.97;53.28
14393;BME280;7281;42.678;23.372;2023-02-28T05:38:52;95688.84;;;11.94;53.32
14393;BME280;7281;42.678;23.372;2023-02-28T05:41:20;95695.06;;;11.88;53.36
14393;BME280;7281;42.678;23.372;2023-02-28T05:43:47;95701.00;;;12.00;53.13
14393;BME280;7281;42.678;23.372;2023-02-28T05:46:14;95690.84;;;11.87;52.90
14393;BME280;7281;42.678;23.372;2023-02-28T05:48:43;95701.25;;;11.98;53.69
14393;BME280;7281;42.678;23.372;2023-02-28T05:51:12;95699.09;;;11.95;53.63
14393;BME280;7281;42.678;23.372;2023-02-28T05:53:39;95708.22;;;12.09;53.35
14393;BME280;7281;42.678;23.372;2023-02-28T05:56:05;95702.50;;;12.17;52.97
14393;BME280;7281;42.678;23.372;2023-02-28T05:58:32;95711.16;;;12.13;53.21
14393;BME280;7281;42.678;23.372;2023-02-28T06:01:18;95724.69;;;12.05;53.38
14393;BME280;7281;42.678;23.372;2023-02-28T06:03:45;95716.69;;;12.16;53.15
14393;BME280;7281;42.678;23.372;2023-02-28T06:06:12;95707.59;;;12.24;53.05
14393;BME280;7281;42.678;23.372;2023-02-28T06:08:38;95697.81;;;11.98;53.50
14393;BME280;7281;42.678;23.372;2023-02-28T06:11:05;95703.91;;;11.82;54.38
14393;BME280;7281;42.678;23.372;2023-02-28T06:13:33;95718.28;;;11.96;54.08
14393;BME280;7281;42.678;23.372;2023-02-28T06:16:03;95710.41;;;11.96;54.34
14393;BME280;7281;42.678;23.372;2023-02-28T06:18:29;95702.72;;;12.11;53.58
14393;BME280;7281;42.678;23.372;2023-02-28T06:20:56;95703.38;;;12.01;53.95
14393;BME280;7281;42.678;23.372;2023-02-28T06:23:23;95715.53;;;11.86;53.81
14393;BME280;7281;42.678;23.372;2023-02-28T06:25:50;95708.81;;;11.95;54.04
14393;BME280;7281;42.678;23.372;2023-02-28T06:28:17;95695.00;;;11.83;53.68
14393;BME280;7281;42.678;23.372;2023-02-28T06:30:44;95713.44;;;11.88;54.46
14393;BME280;7281;42.678;23.372;2023-02-28T06:33:12;95715.56;;;11.69;54.53
14393;BME280;7281;42.678;23.372;2023-02-28T06:35:38;95703.41;;;11.47;54.77
14393;BME280;7281;42.678;23.372;2023-02-28T06:38:06;95730.19;;;11.82;54.58
14393;BME280;7281;42.678;23.372;2023-02-28T06:40:32;95714.78;;;11.69;54.70
14393;BME280;7281;42.678;23.372;2023-02-28T06:43:02;95724.44;;;11.85;54.22
14393;BME280;7281;42.678;23.372;2023-02-28T06:45:29;95720.84;;;11.91;53.88
14393;BME280;7281;42.678;23.372;2023-02-28T06:47:56;95729.06;;;11.78;54.39
14393;BME280;7281;42.678;23.372;2023-02-28T06:50:22;95738.63;;;11.84;54.48
14393;BME280;7281;42.678;23.372;2023-02-28T06:52:49;95736.28;;;11.87;53.94
14393;BME280;7281;42.678;23.372;2023-02-28T06:55:20;95725.25;;;12.07;53.56
14393;BME280;7281;42.678;23.372;2023-02-28T06:57:47;95731.47;;;12.01;54.01
14393;BME280;7281;42.678;23.372;2023-02-28T07:00:14;95733.47;;;11.94;54.03
14393;BME280;7281;42.678;23.372;2023-02-28T07:02:41;95728.41;;;11.87;54.29
14393;BME280;7281;42.678;23.372;2023-02-28T07:05:08;95728.78;;;12.17;53.41
14393;BME280;7281;42.678;23.372;2023-02-28T07:07:35;95733.75;;;12.14;53.85
14393;BME280;7281;42.678;23.372;2023-02-28T07:10:04;95732.63;;;12.10;53.46
14393;BME280;7281;42.678;23.372;2023-02-28T07:12:32;95732.16;;;12.13;53.67
14393;BME280;7281;42.678;23.372;2023-02-28T07:14:59;95727.38;;;12.10;53.80
14393;BME280;7281;42.678;23.372;2023-02-28T07:17:25;95727.22;;;12.16;54.13
14393;BME280;7281;42.678;23.372;2023-02-28T07:19:52;95721.03;;;12.06;54.07
14393;BME280;7281;42.678;23.372;2023-02-28T07:22:20;95732.28;;;12.23;53.89
14393;BME280;7281;42.678;23.372;2023-02-28T07:24:46;95730.09;;;12.15;54.18
14393;BME280;7281;42.678;23.372;2023-02-28T07:27:13;95734.66;;;12.24;55.87
14393;BME280;7281;42.678;23.372;2023-02-28T07:29:50;95729.19;;;12.26;55.07
14393;BME280;7281;42.678;23.372;2023-02-28T07:32:17;95731.34;;;12.34;54.59
14393;BME280;7281;42.678;23.372;2023-02-28T07:34:45;95725.25;;;12.29;54.42
14393;BME280;7281;42.678;23.372;2023-02-28T07:37:12;95725.66;;;12.42;54.17
14393;BME280;7281;42.678;23.372;2023-02-28T07:39:40;95727.63;;;12.78;53.87
14393;BME280;7281;42.678;23.372;2023-02-28T07:42:08;95714.19;;;12.75;53.23
14393;BME280;7281;42.678;23.372;2023-02-28T07:44:39;95724.94;;;12.73;53.93
14393;BME280;7281;42.678;23.372;2023-02-28T07:47:08;95721.72;;;12.66;54.45
14393;BME280;7281;42.678;23.372;2023-02-28T07:49:38;95725.03;;;12.57;53.98
14393;BME280;7281;42.678;23.372;2023-02-28T07:52:06;95729.75;;;12.81;54.20
14393;BME280;7281;42.678;23.372;2023-02-28T07:54:33;95720.09;;;12.92;53.25
14393;BME280;7281;42.678;23.372;2023-02-28T07:57:00;95719.22;;;12.81;54.06
14393;BME280;7281;42.678;23.372;2023-02-28T07:59:27;95713.38;;;12.74;54.01
14393;BME280;7281;42.678;23.372;2023-02-28T08:01:58;95712.69;;;13.10;53.78
14393;BME280;7281;42.678;23.372;2023-02-28T08:04:26;95718.09;;;13.31;53.15
14393;BME280;7281;42.678;23.372;2023-02-28T08:06:52;95713.50;;;13.48;52.30
14393;BME280;7281;42.678;23.372;2023-02-28T08:09:20;95712.91;;;13.36;53.32
14393;BME280;7281;42.678;23.372;2023-02-28T08:11:47;95715.06;;;13.49;52.64
14393;BME280;7281;42.678;23.372;2023-02-28T08:14:13;95719.28;;;13.45;53.06
14393;BME280;7281;42.678;23.372;2023-02-28T08:16:40;95720.06;;;13.45;52.27
14393;BME280;7281;42.678;23.372;2023-02-28T08:19:07;95713.09;;;13.71;52.75
14393;BME280;7281;42.678;23.372;2023-02-28T08:21:34;95713.91;;;13.71;53.69
14393;BME280;7281;42.678;23.372;2023-02-28T08:24:01;95708.41;;;13.78;52.87
14393;BME280;7281;42.678;23.372;2023-02-28T08:26:29;95708.22;;;13.94;52.74
14393;BME280;7281;42.678;23.372;2023-02-28T08:28:55;95703.84;;;14.10;53.20
14393;BME280;7281;42.678;23.372;2023-02-28T08:31:24;95722.03;;;14.11;52.73
14393;BME280;7281;42.678;23.372;2023-02-28T08:33:51;95713.66;;;13.78;53.96
14393;BME280;7281;42.678;23.372;2023-02-28T08:36:19;95719.69;;;14.20;53.29
14393;BME280;7281;42.678;23.372;2023-02-28T08:38:46;95724.09;;;14.61;52.33
14393;BME280;7281;42.678;23.372;2023-02-28T08:41:13;95727.22;;;14.53;54.16
14393;BME280;7281;42.678;23.372;2023-02-28T08:43:40;95720.97;;;14.84;54.44
14393;BME280;7281;42.678;23.372;2023-02-28T08:46:08;95709.91;;;14.97;54.89
14393;BME280;7281;42.678;23.372;2023-02-28T08:48:37;95715.19;;;15.02;54.70
14393;BME280;7281;42.678;23.372;2023-02-28T08:51:07;95717.84;;;15.22;54.41
14393;BME280;7281;42.678;23.372;2023-02-28T08:53:36;95711.50;;;15.18;54.50
14393;BME280;7281;42.678;23.372;2023-02-28T08:58:33;95719.41;;;15.34;53.32
14393;BME280;7281;42.678;23.372;2023-02-28T09:01:11;95717.31;;;15.61;53.19
14393;BME280;7281;42.678;23.372;2023-02-28T09:03:39;95723.13;;;15.38;53.28
14393;BME280;7281;42.678;23.372;2023-02-28T09:06:08;95724.97;;;15.32;52.58
14393;BME280;7281;42.678;23.372;2023-02-28T09:08:35;95720.47;;;15.02;53.30
14393;BME280;7281;42.678;23.372;2023-02-28T09:11:02;95716.78;;;15.54;52.84
14393;BME280;7281;42.678;23.372;2023-02-28T09:13:32;95717.06;;;15.57;52.27
14393;BME280;7281;42.678;23.372;2023-02-28T09:16:00;95715.72;;;15.80;52.29
14393;BME280;7281;42.678;23.372;2023-02-28T09:18:28;95705.59;;;16.07;51.47
14393;BME280;7281;42.678;23.372;2023-02-28T09:20:56;95710.75;;;16.37;51.45
14393;BME280;7281;42.678;23.372;2023-02-28T09:23:24;95702.97;;;16.02;51.43
14393;BME280;7281;42.678;23.372;2023-02-28T09:25:53;95713.59;;;15.82;51.52
14393;BME280;7281;42.678;23.372;2023-02-28T09:28:21;95714.13;;;15.59;51.97
14393;BME280;7281;42.678;23.372;2023-02-28T09:30:50;95710.47;;;15.60;51.51
14393;BME280;7281;42.678;23.372;2023-02-28T09:33:18;95714.66;;;15.66;51.77
14393;BME280;7281;42.678;23.372;2023-02-28T09:35:51;95706.16;;;15.94;51.53
14393;BME280;7281;42.678;23.372;2023-02-28T09:38:23;95710.56;;;16.13;51.26
14393;BME280;7281;42.678;23.372;2023-02-28T09:40:53;95706.50;;;16.41;50.77
14393;BME280;7281;42.678;23.372;2023-02-28T09:43:22;95701.28;;;16.21;50.47
14393;BME280;7281;42.678;23.372;2023-02-28T09:46:00;95694.84;;;16.52;50.50
14393;BME280;7281;42.678;23.372;2023-02-28T09:48:35;95693.16;;;16.71;49.55
14393;BME280;7281;42.678;23.372;2023-02-28T09:51:28;95694.25;;;17.04;48.58
14393;BME280;7281;42.678;23.372;2023-02-28T09:53:58;95690.47;;;16.76;47.68
14393;BME280;7281;42.678;23.372;2023-02-28T09:56:33;95696.69;;;16.57;47.98
14393;BME280;7281;42.678;23.372;2023-02-28T10:04:59;95687.81;;;16.76;48.12
14393;BME280;7281;42.678;23.372;2023-02-28T10:10:49;95680.56;;;16.97;47.00
14393;BME280;7281;42.678;23.372;2023-02-28T10:15:54;95677.72;;;17.17;47.62
14393;BME280;7281;42.678;23.372;2023-02-28T10:18:25;95679.09;;;17.72;46.47
14393;BME280;7281;42.678;23.372;2023-02-28T10:20:54;95684.84;;;17.21;46.32
14393;BME280;7281;42.678;23.372;2023-02-28T10:23:28;95676.69;;;17.47;46.22
14393;BME280;7281;42.678;23.372;2023-02-28T10:26:00;95678.50;;;17.17;46.16
14393;BME280;7281;42.678;23.372;2023-02-28T10:28:29;95664.81;;;17.10;45.77
14393;BME280;7281;42.678;23.372;2023-02-28T10:30:58;95670.69;;;17.02;45.45
14393;BME280;7281;42.678;23.372;2023-02-28T10:33:35;95667.22;;;17.41;45.38
14393;BME280;7281;42.678;23.372;2023-02-28T10:36:03;95657.88;;;17.77;44.77
14393;BME280;7281;42.678;23.372;2023-02-28T10:38:38;95658.63;;;17.77;44.78
14393;BME280;7281;42.678;23.372;2023-02-28T10:41:11;95646.16;;;18.25;44.17
14393;BME280;7281;42.678;23.372;2023-02-28T10:43:39;95646.72;;;18.22;43.65
14393;BME280;7281;42.678;23.372;2023-02-28T10:46:13;95652.50;;;17.82;44.17
14393;BME280;7281;42.678;23.372;2023-02-28T10:48:43;95644.41;;;17.40;44.59
14393;BME280;7281;42.678;23.372;2023-02-28T10:51:13;95633.66;;;17.83;44.06
14393;BME280;7281;42.678;23.372;2023-02-28T10:56:27;95632.81;;;18.11;43.05
14393;BME280;7281;42.678;23.372;2023-02-28T11:03:58;95608.81;;;17.98;43.30
14393;BME280;7281;42.678;23.372;2023-02-28T11:06:34;95605.34;;;17.79;43.05
14393;BME280;7281;42.678;23.372;2023-02-28T11:09:04;95611.88;;;18.10;43.06
14393;BME280;7281;42.678;23.372;2023-02-28T11:11:43;95609.44;;;18.32;43.02
14393;BME280;7281;42.678;23.372;2023-02-28T11:14:24;95603.31;;;18.55;42.29
14393;BME280;7281;42.678;23.372;2023-02-28T11:16:52;95601.78;;;18.86;41.88
14393;BME280;7281;42.678;23.372;2023-02-28T11:19:29;95602.91;;;18.99;41.53
14393;BME280;7281;42.678;23.372;2023-02-28T11:22:00;95613.94;;;19.06;41.54
14393;BME280;7281;42.678;23.372;2023-02-28T11:26:55;95603.44;;;18.82;41.44
14393;BME280;7281;42.678;23.372;2023-02-28T11:29:28;95598.44;;;18.44;41.69
14393;BME280;7281;42.678;23.372;2023-02-28T11:34:29;95605.47;;;18.53;41.89
14393;BME280;7281;42.678;23.372;2023-02-28T11:36:59;95598.50;;;17.96;41.75
14393;BME280;7281;42.678;23.372;2023-02-28T11:39:27;95598.75;;;18.18;42.08
14393;BME280;7281;42.678;23.372;2023-02-28T11:44:45;95592.66;;;18.18;42.09
14393;BME280;7281;42.678;23.372;2023-02-28T11:55:35;95582.34;;;18.35;42.22
14393;BME280;7281;42.678;23.372;2023-02-28T12:06:38;95585.75;;;18.91;41.42
14393;BME280;7281;42.678;23.372;2023-02-28T12:23:17;95570.72;;;18.31;42.00
14393;BME280;7281;42.678;23.372;2023-02-28T12:28:23;95570.97;;;18.53;41.76
14393;BME280;7281;42.678;23.372;2023-02-28T12:31:01;95572.41;;;18.96;40.85
14393;BME280;7281;42.678;23.372;2023-02-28T12:33:38;95571.22;;;19.02;40.60
14393;BME280;7281;42.678;23.372;2023-02-28T12:36:10;95565.25;;;18.78;40.91
14393;BME280;7281;42.678;23.372;2023-02-28T12:38:59;95564.16;;;19.11;40.12
14393;BME280;7281;42.678;23.372;2023-02-28T12:41:35;95561.28;;;18.94;40.66
14393;BME280;7281;42.678;23.372;2023-02-28T12:44:12;95568.56;;;19.35;40.35
14393;BME280;7281;42.678;23.372;2023-02-28T12:46:48;95556.38;;;19.61;39.49
14393;BME280;7281;42.678;23.372;2023-02-28T12:49:21;95554.31;;;18.98;40.01
14393;BME280;7281;42.678;23.372;2023-02-28T12:51:49;95549.53;;;18.82;40.06
14393;BME280;7281;42.678;23.372;2023-02-28T12:54:29;95555.47;;;18.60;40.13
14393;BME280;7281;42.678;23.372;2023-02-28T12:57:14;95554.50;;;18.14;40.46
14393;BME280;7281;42.678;23.372;2023-02-28T12:59:53;95556.22;;;18.79;40.03
14393;BME280;7281;42.678;23.372;2023-02-28T13:05:29;95557.69;;;18.53;40.45
14393;BME280;7281;42.678;23.372;2023-02-28T13:10:58;95557.94;;;18.70;39.24
14393;BME280;7281;42.678;23.372;2023-02-28T13:13:28;95554.13;;;18.44;39.50
14393;BME280;7281;42.678;23.372;2023-02-28T13:16:08;95558.28;;;18.50;40.28
14393;BME280;7281;42.678;23.372;2023-02-28T13:18:45;95562.47;;;18.33;40.73
14393;BME280;7281;42.678;23.372;2023-02-28T13:21:29;95551.34;;;18.86;40.00
14393;BME280;7281;42.678;23.372;2023-02-28T13:24:00;95554.53;;;18.51;40.14
14393;BME280;7281;42.678;23.372;2023-02-28T13:31:28;95544.72;;;18.52;40.27
14393;BME280;7281;42.678;23.372;2023-02-28T13:36:32;95547.75;;;18.03;40.33
14393;BME280;7281;42.678;23.372;2023-02-28T13:47:44;95551.06;;;18.69;40.29
14393;BME280;7281;42.678;23.372;2023-02-28T13:50:27;95547.47;;;18.23;41.06
14393;BME280;7281;42.678;23.372;2023-02-28T14:06:26;95539.03;;;17.37;42.49
14393;BME280;7281;42.678;23.372;2023-02-28T14:09:30;95545.75;;;17.00;42.56
14393;BME280;7281;42.678;23.372;2023-02-28T14:17:57;95547.84;;;16.36;44.46
14393;BME280;7281;42.678;23.372;2023-02-28T14:20:29;95555.19;;;16.49;44.41
14393;BME280;7281;42.678;23.372;2023-02-28T14:25:44;95550.00;;;16.29;44.84
14393;BME280;7281;42.678;23.372;2023-02-28T14:31:10;95550.72;;;16.40;44.17
14393;BME280;7281;42.678;23.372;2023-02-28T14:34:21;95555.66;;;16.56;44.42
14393;BME280;7281;42.678;23.372;2023-02-28T14:36:53;95565.59;;;15.82;45.52
14393;BME280;7281;42.678;23.372;2023-02-28T14:39:25;95558.06;;;16.04;45.14
14393;BME280;7281;42.678;23.372;2023-02-28T14:41:52;95558.25;;;15.64;46.05
14393;BME280;7281;42.678;23.372;2023-02-28T14:44:21;95555.09;;;16.15;45.14
14393;BME280;7281;42.678;23.372;2023-02-28T14:46:56;95557.97;;;16.19;44.75
14393;BME280;7281;42.678;23.372;2023-02-28T14:49:28;95556.94;;;16.20;45.43
14393;BME280;7281;42.678;23.372;2023-02-28T14:55:03;95561.84;;;15.93;45.64
14393;BME280;7281;42.678;23.372;2023-02-28T14:57:34;95558.69;;;15.91;45.38
14393;BME280;7281;42.678;23.372;2023-02-28T15:02:34;95560.81;;;15.84;46.11
14393;BME280;7281;42.678;23.372;2023-02-28T15:05:32;95558.03;;;16.14;45.84
14393;BME280;7281;42.678;23.372;2023-02-28T15:08:12;95550.53;;;16.26;45.21
14393;BME280;7281;42.678;23.372;2023-02-28T15:16:09;95557.19;;;15.70;46.04
14393;BME280;7281;42.678;23.372;2023-02-28T15:21:45;95547.81;;;15.23;47.45
14393;BME280;7281;42.678;23.372;2023-02-28T15:24:17;95552.94;;;15.74;46.10
14393;BME280;7281;42.678;23.372;2023-02-28T15:26:57;95561.78;;;16.03;45.63
14393;BME280;7281;42.678;23.372;2023-02-28T15:29:26;95561.16;;;16.21;45.53
14393;BME280;7281;42.678;23.372;2023-02-28T15:34:40;95571.88;;;15.96;46.21
14393;BME280;7281;42.678;23.372;2023-02-28T15:40:12;95576.09;;;15.92;46.01
14393;BME280;7281;42.678;23.372;2023-02-28T15:42:39;95569.22;;;15.96;46.13
14393;BME280;7281;42.678;23.372;2023-02-28T15:45:27;95572.34;;;16.03;45.58
14393;BME280;7281;42.678;23.372;2023-02-28T15:47:55;95567.66;;;15.90;46.08
14393;BME280;7281;42.678;23.372;2023-02-28T15:50:28;95581.84;;;16.09;45.78
14393;BME280;7281;42.678;23.372;2023-02-28T15:52:57;95576.84;;;16.07;45.69
14393;BME280;7281;42.678;23.372;2023-02-28T15:55:27;95565.59;;;15.82;46.22
14393;BME280;7281;42.678;23.372;2023-02-28T15:57:56;95569.63;;;15.64;46.74
14393;BME280;7281;42.678;23.372;2023-02-28T16:00:27;95589.75;;;15.50;47.18
14393;BME280;7281;42.678;23.372;2023-02-28T16:02:55;95570.53;;;15.19;47.21
14393;BME280;7281;42.678;23.372;2023-02-28T16:05:28;95587.63;;;15.52;47.43
14393;BME280;7281;42.678;23.372;2023-02-28T16:08:13;95593.22;;;15.15;47.73
14393;BME280;7281;42.678;23.372;2023-02-28T16:10:40;95597.19;;;15.13;48.05
14393;BME280;7281;42.678;23.372;2023-02-28T16:13:11;95605.91;;;15.23;47.44
14393;BME280;7281;42.678;23.372;2023-02-28T16:15:42;95610.66;;;14.61;48.80